Time;durP1;ratioP1;P1;durP2;ratioP2;P2;SDS_P1;SDS_P2;PMS_P1;PMS_P2;Temp;Humidity;BMP_temperature;BMP_pressure;BME280_temperature;BME280_humidity;BME280_pressure;Samples;Min_cycle;Max_cycle;Signal;HPM_P1;HPM_P2
2022/05/30 00:00:41;;;;;;;14.13;3.10;;;9.10;99.90;;;;;;4907768;29;20067;-85
2022/05/30 00:03:08;;;;;;;13.38;2.75;;;;;;;;;;4921960;29;20052;-85
2022/05/30 00:06:09;;;;;;;9.90;2.55;;;9.10;99.90;;;;;;4920951;29;20051;-85
2022/05/30 00:08:41;;;;;;;9.50;2.58;;;9.00;99.90;;;;;;4916518;29;20048;-84
2022/05/30 00:11:20;;;;;;;10.10;2.72;;;9.10;99.90;;;;;;4915493;29;20069;-84
2022/05/30 00:14:04;;;;;;;12.63;2.33;;;9.10;99.90;;;;;;4941115;29;20051;-85
2022/05/30 00:16:36;;;;;;;11.02;2.50;;;;;;;;;;4940455;29;20055;-84
2022/05/30 00:19:05;;;;;;;11.55;2.75;;;9.20;99.90;;;;;;4941017;29;20090;-85
2022/05/30 00:21:31;;;;;;;9.13;2.10;;;;;;;;;;4940198;29;20051;-85
2022/05/30 00:23:57;;;;;;;9.95;2.15;;;;;;;;;;4925106;29;20059;-85
2022/05/30 00:26:48;;;;;;;;;;;;;;;;;;;;;
2022/05/30 00:29:27;;;;;;;;;;;;;;;;;;;;;
2022/05/30 00:31:57;;;;;;;6.82;1.80;;;;;;;;;;4959587;29;20063;-84
2022/05/30 00:34:26;;;;;;;7.72;1.90;;;;;;;;;;4941645;29;20134;-85
2022/05/30 00:37:01;;;;;;;5.85;1.90;;;9.20;99.90;;;;;;4959602;29;20051;-85
2022/05/30 00:39:30;;;;;;;4.10;1.70;;;;;;;;;;4926872;29;20055;-85
2022/05/30 00:42:26;;;;;;;4.07;1.52;;;9.10;99.90;;;;;;4940163;29;20047;-84
2022/05/30 00:45:29;;;;;;;4.30;1.57;;;9.10;99.90;;;;;;4846015;29;20057;-84
2022/05/30 00:48:07;;;;;;;;;;;;;;;;;;;;;
2022/05/30 00:50:33;;;;;;;4.57;1.60;;;;;;;;;;4861820;29;20138;-84
2022/05/30 00:53:05;;;;;;;4.97;1.38;;;9.10;99.90;;;;;;4845533;29;20053;-84
2022/05/30 00:55:41;;;;;;;5.88;1.67;;;9.10;99.90;;;;;;4846452;29;20057;-85
2022/05/30 00:58:29;;;;;;;;;;;9.10;99.90;;;;;;4846304;29;20072;-84
2022/05/30 01:00:55;;;;;;;4.03;1.48;;;9.00;99.90;;;;;;4955829;23;19922;-65
2022/05/30 01:08:53;;;;;;;5.13;1.73;;;9.00;99.90;;;;;;4971129;28;20050;-65
2022/05/30 01:11:19;;;;;;;4.35;1.70;;;;;;;;;;4938137;29;20565;-65
2022/05/30 01:13:44;;;;;;;5.28;1.60;;;8.70;99.90;;;;;;4955487;29;20447;-64
2022/05/30 01:16:10;;;;;;;5.90;1.73;;;8.90;99.90;;;;;;4955781;29;20094;-64
2022/05/30 01:18:42;;;;;;;6.28;1.70;;;8.80;99.90;;;;;;4951875;28;20054;-64
2022/05/30 01:21:30;;;;;;;6.03;1.75;;;8.80;99.90;;;;;;4974657;28;20054;-65
2022/05/30 01:24:30;;;;;;;6.50;1.58;;;8.30;99.90;;;;;;4957537;28;20050;-64
2022/05/30 01:27:08;;;;;;;4.47;1.55;;;9.20;99.90;;;;;;4973795;28;20482;-64
2022/05/30 01:29:44;;;;;;;6.80;1.85;;;8.60;99.90;;;;;;4959188;28;20050;-64
2022/05/30 01:32:09;;;;;;;5.63;1.60;;;8.50;99.90;;;;;;4955371;29;20407;-64
2022/05/30 01:34:35;;;;;;;7.63;1.90;;;8.60;99.90;;;;;;4955242;29;20055;-64
2022/05/30 01:37:01;;;;;;;5.43;1.55;;;8.90;99.90;;;;;;4955140;29;20491;-64
2022/05/30 01:39:26;;;;;;;8.77;1.92;;;8.60;99.90;;;;;;4955492;29;20478;-65
2022/05/30 01:41:53;;;;;;;7.30;1.85;;;;;;;;;;4955089;29;20440;-65
2022/05/30 01:44:19;;;;;;;5.20;1.60;;;;;;;;;;4955177;29;20055;-64
2022/05/30 01:46:45;;;;;;;4.50;1.70;;;8.40;99.90;;;;;;4955140;29;20066;-64
2022/05/30 01:49:11;;;;;;;4.50;1.77;;;;;;;;;;4955586;29;20467;-64
2022/05/30 01:51:37;;;;;;;7.55;1.70;;;8.30;99.90;;;;;;4954873;29;20055;-64
2022/05/30 01:54:03;;;;;;;5.68;1.83;;;8.20;99.90;;;;;;4937868;29;20055;-64
2022/05/30 01:56:29;;;;;;;5.20;1.98;;;8.30;99.90;;;;;;4953800;29;20102;-64
2022/05/30 01:58:54;;;;;;;6.38;1.90;;;8.30;99.90;;;;;;4954939;29;20051;-64
2022/05/30 02:01:24;;;;;;;5.05;2.00;;;8.10;99.90;;;;;;4954792;29;20047;-65
2022/05/30 02:03:51;;;;;;;3.90;1.75;;;8.00;99.90;;;;;;4937784;29;20051;-64
2022/05/30 02:06:19;;;;;;;5.97;2.10;;;8.20;99.90;;;;;;4954721;29;20054;-64
2022/05/30 02:08:47;;;;;;;8.43;2.20;;;8.00;99.90;;;;;;4960256;28;20118;-64
2022/05/30 02:11:13;;;;;;;7.18;1.90;;;7.90;99.90;;;;;;4974161;28;20051;-64
2022/05/30 02:13:39;;;;;;;6.93;2.00;;;8.10;99.90;;;;;;4974415;28;20427;-64
2022/05/30 02:18:51;;;;;;;;;;;7.80;99.90;;;;;;4974379;28;20066;-64
2022/05/30 02:21:17;;;;;;;6.68;2.53;;;7.80;99.90;;;;;;4974324;28;19922;-64
2022/05/30 02:23:43;;;;;;;7.00;2.60;;;7.20;99.90;;;;;;4974131;28;20513;-64
2022/05/30 02:26:10;;;;;;;7.53;2.80;;;7.70;99.90;;;;;;4974082;28;20053;-64
2022/05/30 02:28:36;;;;;;;9.70;2.95;;;8.10;99.90;;;;;;4956789;28;20505;-64
2022/05/30 02:31:03;;;;;;;11.05;2.95;;;7.80;99.90;;;;;;4973960;28;20074;-64
2022/05/30 02:38:57;;;;;;;8.82;2.70;;;7.80;99.90;;;;;;4975490;28;20046;-64
2022/05/30 02:41:22;;;;;;;7.32;2.40;;;7.40;99.90;;;;;;4960080;28;20059;-64
2022/05/30 02:43:50;;;;;;;9.20;2.50;;;7.70;99.90;;;;;;4977231;28;20375;-64
2022/05/30 02:46:16;;;;;;;5.20;2.30;;;;;;;;;;4960068;28;20572;-64
2022/05/30 02:48:42;;;;;;;9.93;2.33;;;7.60;99.90;;;;;;4977199;28;20057;-64
2022/05/30 02:51:10;;;;;;;7.18;2.80;;;;;;;;;;4977346;28;20047;-64
2022/05/30 02:53:36;;;;;;;7.55;2.75;;;;;;;;;;4977332;28;20379;-64
2022/05/30 02:56:02;;;;;;;9.75;2.80;;;;;;;;;;4977209;28;20085;-64
2022/05/30 02:58:28;;;;;;;7.90;2.60;;;7.60;99.90;;;;;;4977079;28;20057;-64
2022/05/30 03:00:53;;;;;;;7.15;2.45;;;7.30;99.90;;;;;;4977044;28;20050;-64
2022/05/30 03:03:19;;;;;;;9.27;2.67;;;7.50;99.90;;;;;;4977253;28;20055;-64
2022/05/30 03:05:45;;;;;;;10.55;2.78;;;7.40;99.90;;;;;;4977028;28;20046;-64
2022/05/30 03:08:11;;;;;;;10.48;2.88;;;7.20;99.90;;;;;;4977166;28;20038;-64
2022/05/30 03:10:37;;;;;;;7.32;2.45;;;7.50;99.90;;;;;;4976917;28;20086;-64
2022/05/30 03:13:05;;;;;;;6.05;2.50;;;7.40;99.90;;;;;;4959644;28;20055;-64
2022/05/30 03:15:31;;;;;;;9.60;3.17;;;7.30;99.90;;;;;;4977016;28;20125;-64
2022/05/30 03:17:57;;;;;;;7.90;2.90;;;7.60;99.90;;;;;;4976916;28;20125;-64
2022/05/30 03:20:23;;;;;;;7.15;2.67;;;7.20;99.90;;;;;;4976828;28;20049;-64
2022/05/30 03:22:49;;;;;;;10.23;2.97;;;;;;;;;;4976697;28;20078;-64
2022/05/30 03:25:18;;;;;;;7.68;2.70;;;7.10;99.90;;;;;;4976526;28;20490;-63
2022/05/30 03:27:44;;;;;;;8.48;2.83;;;7.50;99.90;;;;;;4976455;28;20046;-64
2022/05/30 03:30:11;;;;;;;9.13;3.05;;;7.20;99.90;;;;;;4976406;28;20046;-65
2022/05/30 03:32:37;;;;;;;7.95;3.03;;;7.20;99.90;;;;;;4976608;28;20050;-65
2022/05/30 03:35:04;;;;;;;10.10;3.13;;;7.40;99.90;;;;;;4959116;28;20359;-62
2022/05/30 03:37:30;;;;;;;10.38;3.42;;;7.30;99.90;;;;;;4959288;28;20158;-62
2022/05/30 03:39:56;;;;;;;7.93;3.20;;;7.20;99.90;;;;;;4976120;28;20435;-63
2022/05/30 03:42:22;;;;;;;10.95;3.30;;;7.40;99.90;;;;;;4959133;28;20051;-62
2022/05/30 03:44:48;;;;;;;8.18;3.20;;;7.20;99.90;;;;;;4976341;28;20050;-62
2022/05/30 03:47:14;;;;;;;10.15;3.58;;;7.30;99.90;;;;;;4976292;28;20194;-63
2022/05/30 03:49:40;;;;;;;9.00;3.55;;;7.30;99.90;;;;;;4975689;28;20402;-65
2022/05/30 03:52:06;;;;;;;10.38;3.70;;;7.50;99.90;;;;;;4976035;28;20059;-65
2022/05/30 03:54:32;;;;;;;9.30;3.88;;;7.40;99.90;;;;;;4975918;28;20498;-65
2022/05/30 03:56:58;;;;;;;9.82;3.70;;;;;;;;;;4975990;28;20058;-63
2022/05/30 03:59:24;;;;;;;9.52;4.18;;;;;;;;;;4976169;28;20465;-62
2022/05/30 04:01:50;;;;;;;10.80;3.83;;;7.40;99.90;;;;;;4975639;28;20113;-63
2022/05/30 04:04:16;;;;;;;10.68;3.95;;;;;;;;;;4975763;28;20058;-62
2022/05/30 04:06:41;;;;;;;10.25;4.25;;;7.40;99.90;;;;;;4975750;28;20046;-63
2022/05/30 04:09:07;;;;;;;10.52;3.70;;;7.90;99.90;;;;;;4974474;28;20045;-62
2022/05/30 04:11:35;;;;;;;12.68;4.30;;;7.40;99.90;;;;;;4975695;28;20490;-62
2022/05/30 04:14:00;;;;;;;9.38;4.10;;;7.20;99.90;;;;;;4975702;28;20054;-63
2022/05/30 04:16:26;;;;;;;12.02;4.20;;;7.80;99.90;;;;;;4975703;28;20051;-63
2022/05/30 04:18:52;;;;;;;12.30;4.30;;;;;;;;;;4942320;28;20137;-63
2022/05/30 04:21:17;;;;;;;16.58;4.05;;;7.90;99.90;;;;;;4975511;28;20047;-62
2022/05/30 04:23:44;;;;;;;11.10;4.15;;;8.10;99.90;;;;;;4975423;28;20054;-62
2022/05/30 04:26:13;;;;;;;14.30;4.30;;;8.40;99.90;;;;;;4975417;28;20498;-62
2022/05/30 04:28:39;;;;;;;11.38;3.95;;;7.70;99.90;;;;;;4975279;28;20509;-62
2022/05/30 04:31:06;;;;;;;11.02;4.07;;;8.30;99.90;;;;;;4975340;28;20561;-63
2022/05/30 04:33:33;;;;;;;13.57;4.10;;;8.20;99.90;;;;;;4975332;28;20050;-64
2022/05/30 04:36:00;;;;;;;9.48;3.85;;;7.80;99.90;;;;;;4957957;28;20054;-63
2022/05/30 04:38:26;;;;;;;11.20;4.30;;;8.20;99.90;;;;;;4975071;28;20054;-63
2022/05/30 04:40:51;;;;;;;11.45;4.20;;;8.10;99.90;;;;;;4975240;28;20050;-63
2022/05/30 04:43:17;;;;;;;8.82;4.10;;;8.30;99.90;;;;;;4957753;28;20450;-63
2022/05/30 04:45:42;;;;;;;13.13;4.25;;;8.20;99.90;;;;;;4975266;28;20046;-63
2022/05/30 04:48:08;;;;;;;10.10;4.20;;;8.40;99.90;;;;;;4975237;28;20488;-63
2022/05/30 04:50:34;;;;;;;10.77;3.85;;;;;;;;;;4957712;28;20495;-63
2022/05/30 04:53:00;;;;;;;11.60;4.28;;;;;;;;;;4974897;28;20051;-63
2022/05/30 04:55:26;;;;;;;9.50;3.88;;;8.80;99.90;;;;;;4975100;28;20098;-63
2022/05/30 04:57:52;;;;;;;11.40;4.00;;;8.50;99.90;;;;;;4975073;28;20431;-65
2022/05/30 05:00:21;;;;;;;10.30;4.30;;;8.50;99.90;;;;;;4974691;28;20178;-65
2022/05/30 05:02:47;;;;;;;10.25;4.05;;;8.50;99.90;;;;;;4974190;28;20145;-65
2022/05/30 05:05:13;;;;;;;9.73;3.83;;;8.40;99.90;;;;;;4957383;28;20047;-66
2022/05/30 05:07:53;;;;;;;10.10;3.67;;;8.60;99.90;;;;;;4974676;28;20053;-66
2022/05/30 05:10:26;;;;;;;9.80;3.90;;;8.50;99.90;;;;;;4974778;28;20046;-63
2022/05/30 05:12:52;;;;;;;10.52;4.30;;;8.70;99.90;;;;;;4974823;28;20057;-64
2022/05/30 05:15:18;;;;;;;9.27;3.85;;;8.80;99.90;;;;;;4941595;28;20406;-63
2022/05/30 05:17:43;;;;;;;10.57;3.85;;;8.70;99.90;;;;;;4974492;28;20126;-63
2022/05/30 05:20:09;;;;;;;9.25;3.70;;;8.40;99.90;;;;;;4974704;28;20050;-65
2022/05/30 05:22:35;;;;;;;10.98;4.15;;;;;;;;;;4974346;28;20047;-64
2022/05/30 05:25:01;;;;;;;13.27;4.15;;;8.60;99.90;;;;;;4974725;28;20055;-63
2022/05/30 05:27:27;;;;;;;9.50;4.18;;;;;;;;;;4974809;28;20046;-64
2022/05/30 05:29:54;;;;;;;9.00;3.80;;;8.80;99.90;;;;;;4974584;28;20051;-66
2022/05/30 05:32:20;;;;;;;10.43;3.90;;;8.80;99.90;;;;;;4957124;28;20438;-66
2022/05/30 05:34:50;;;;;;;8.68;3.92;;;;;;;;;;4974613;28;20089;-64
2022/05/30 05:37:16;;;;;;;8.32;3.65;;;;;;;;;;4974635;28;20125;-64
2022/05/30 05:39:42;;;;;;;8.85;3.90;;;9.20;99.90;;;;;;4974598;28;20520;-64
2022/05/30 05:42:08;;;;;;;6.53;3.40;;;9.60;99.90;;;;;;4956853;28;20090;-63
2022/05/30 05:44:34;;;;;;;8.63;3.92;;;9.70;99.90;;;;;;4974280;28;20057;-66
2022/05/30 05:46:59;;;;;;;9.65;3.60;;;9.30;99.90;;;;;;4974182;28;20042;-64
2022/05/30 05:49:26;;;;;;;10.63;3.80;;;9.50;99.90;;;;;;4974484;28;20047;-64
2022/05/30 05:51:54;;;;;;;9.13;3.50;;;9.70;99.90;;;;;;4974373;28;20229;-64
2022/05/30 05:54:23;;;;;;;7.32;3.47;;;10.00;99.90;;;;;;4974337;28;20592;-63
2022/05/30 05:56:49;;;;;;;12.43;3.60;;;10.10;99.90;;;;;;4974216;28;20054;-64
2022/05/30 05:59:16;;;;;;;8.32;3.22;;;10.90;99.90;;;;;;4974224;28;20121;-63
2022/05/30 06:01:41;;;;;;;8.10;3.08;;;11.50;99.90;;;;;;4973770;28;20105;-63
2022/05/30 06:04:09;;;;;;;7.50;2.97;;;12.60;99.90;;;;;;4974291;28;20046;-63
2022/05/30 06:06:35;;;;;;;9.07;3.10;;;14.50;99.90;;;;;;4974114;28;20102;-66
2022/05/30 06:09:03;;;;;;;7.32;2.78;;;16.30;99.90;;;;;;4974204;28;20051;-64
2022/05/30 06:11:30;;;;;;;7.85;2.70;;;18.00;99.90;;;;;;4956727;28;20096;-64
2022/05/30 06:13:57;;;;;;;7.05;2.97;;;;;;;;;;4977261;28;20050;-65
2022/05/30 06:16:26;;;;;;;5.68;2.42;;;20.70;98.20;;;;;;4944428;28;20062;-66
2022/05/30 06:18:54;;;;;;;6.05;2.30;;;21.30;90.20;;;;;;4977931;28;20054;-66
2022/05/30 06:21:23;;;;;;;5.38;2.40;;;22.50;85.00;;;;;;4977801;28;20130;-66
2022/05/30 06:23:49;;;;;;;5.88;2.30;;;;;;;;;;4977194;28;20133;-66
2022/05/30 06:26:15;;;;;;;7.63;2.35;;;23.40;67.90;;;;;;4977733;28;20089;-66
2022/05/30 06:28:42;;;;;;;8.93;2.35;;;23.60;70.00;;;;;;4960439;28;20050;-65
2022/05/30 06:31:10;;;;;;;4.30;2.25;;;23.20;57.30;;;;;;4949765;28;20364;-66
2022/05/30 06:33:37;;;;;;;6.57;2.20;;;;;;;;;;4970338;28;20050;-66
2022/05/30 06:36:05;;;;;;;6.57;2.20;;;24.20;66.30;;;;;;4968308;28;20055;-66
2022/05/30 06:38:30;;;;;;;6.47;2.30;;;24.40;63.30;;;;;;4966499;28;20051;-66
2022/05/30 06:40:56;;;;;;;6.22;2.50;;;24.40;63.40;;;;;;4930510;28;20417;-67
2022/05/30 06:43:21;;;;;;;7.65;2.30;;;24.00;62.30;;;;;;4964144;28;20043;-66
2022/05/30 06:45:48;;;;;;;4.15;2.00;;;23.50;64.00;;;;;;4968811;28;20487;-66
2022/05/30 06:48:14;;;;;;;9.48;2.30;;;23.20;65.10;;;;;;4956658;29;20043;-66
2022/05/30 06:50:40;;;;;;;7.25;2.70;;;23.20;67.40;;;;;;4956882;29;20062;-66
2022/05/30 06:53:06;;;;;;;5.45;2.25;;;22.20;68.60;;;;;;4956737;29;20047;-66
2022/05/30 06:55:32;;;;;;;5.57;2.35;;;21.30;68.90;;;;;;4939468;29;20058;-66
2022/05/30 06:58:13;;;;;;;7.15;2.10;;;21.40;71.50;;;;;;4965725;28;20078;-66
2022/05/30 07:00:39;;;;;;;7.32;2.05;;;21.50;70.90;;;;;;4975899;28;20063;-66
2022/05/30 07:03:05;;;;;;;5.93;2.17;;;22.50;63.10;;;;;;4975172;28;20058;-66
2022/05/30 07:05:34;;;;;;;7.85;2.47;;;22.30;68.20;;;;;;4976057;28;20047;-67
2022/05/30 07:08:00;;;;;;;7.03;2.17;;;22.90;65.80;;;;;;4975087;28;20055;-66
2022/05/30 07:10:30;;;;;;;6.90;1.98;;;22.70;66.80;;;;;;4975791;28;20134;-66
2022/05/30 07:12:57;;;;;;;8.68;3.78;;;22.70;66.10;;;;;;4975112;28;20062;-66
2022/05/30 07:15:23;;;;;;;5.22;2.03;;;22.50;67.20;;;;;;4974894;28;20046;-67
2022/05/30 07:17:48;;;;;;;4.63;1.75;;;21.70;67.50;;;;;;4975160;28;20085;-66
2022/05/30 07:20:18;;;;;;;5.45;1.80;;;21.50;70.00;;;;;;4973354;28;20042;-66
2022/05/30 07:22:43;;;;;;;2.95;1.65;;;21.10;73.00;;;;;;4974110;28;20129;-66
2022/05/30 07:25:09;;;;;;;4.78;1.80;;;20.30;75.00;;;;;;4973623;28;20039;-66
2022/05/30 07:27:35;;;;;;;6.15;2.08;;;19.90;77.80;;;;;;4959123;28;20601;-66
2022/05/30 07:30:01;;;;;;;4.28;1.60;;;19.20;77.30;;;;;;4975502;28;20117;-66
2022/05/30 07:32:26;;;;;;;3.35;1.25;;;19.40;70.20;;;;;;4975675;28;20046;-66
2022/05/30 07:34:52;;;;;;;3.58;1.20;;;18.50;87.30;;;;;;4975304;28;20449;-67
2022/05/30 07:37:18;;;;;;;4.20;1.42;;;17.70;90.40;;;;;;4958816;28;20058;-67
2022/05/30 07:39:43;;;;;;;4.18;1.50;;;17.30;93.10;;;;;;4975911;28;20042;-67
2022/05/30 07:42:13;;;;;;;4.38;1.45;;;17.40;88.50;;;;;;4975961;28;20054;-66
2022/05/30 07:44:39;;;;;;;4.28;1.20;;;17.10;91.20;;;;;;4959165;28;20129;-61
2022/05/30 07:47:07;;;;;;;3.83;1.52;;;16.70;97.70;;;;;;4976278;28;20174;-61
2022/05/30 07:49:36;;;;;;;4.38;1.50;;;16.30;99.80;;;;;;4976304;28;20054;-61
2022/05/30 07:52:02;;;;;;;3.97;1.60;;;16.10;99.90;;;;;;4975938;28;20042;-61
2022/05/30 07:54:28;;;;;;;3.22;1.30;;;16.40;99.90;;;;;;4959048;28;20069;-62
2022/05/30 07:56:53;;;;;;;4.13;1.30;;;16.40;98.40;;;;;;4976181;28;20106;-62
2022/05/30 07:59:20;;;;;;;3.88;1.48;;;17.40;99.90;;;;;;4975988;28;20055;-61
2022/05/30 08:01:46;;;;;;;2.70;1.27;;;17.50;98.20;;;;;;4975626;28;20506;-62
2022/05/30 08:04:15;;;;;;;3.20;1.23;;;17.40;93.20;;;;;;4975939;28;20051;-61
2022/05/30 08:06:41;;;;;;;4.80;2.30;;;17.40;91.80;;;;;;4975659;28;20134;-61
2022/05/30 08:09:06;;;;;;;3.92;1.27;;;17.10;93.90;;;;;;4975447;28;20371;-61
2022/05/30 08:11:32;;;;;;;3.10;1.00;;;17.50;88.50;;;;;;4975195;28;20055;-62
2022/05/30 08:13:58;;;;;;;5.00;1.38;;;17.60;93.60;;;;;;4975501;28;20058;-62
2022/05/30 08:16:26;;;;;;;2.45;1.17;;;17.50;92.40;;;;;;4975085;28;20213;-62
2022/05/30 08:18:52;;;;;;;3.88;1.30;;;17.60;84.10;;;;;;4974719;28;20046;-61
2022/05/30 08:21:18;;;;;;;4.15;1.13;;;17.40;84.80;;;;;;4974513;28;20055;-62
2022/05/30 08:23:44;;;;;;;3.70;1.10;;;17.30;84.30;;;;;;4975055;28;20106;-62
2022/05/30 08:26:13;;;;;;;2.38;1.05;;;17.20;85.20;;;;;;4974841;28;20510;-62
2022/05/30 08:28:39;;;;;;;6.22;1.30;;;16.90;92.50;;;;;;4957741;28;20053;-62
2022/05/30 08:31:05;;;;;;;4.72;1.00;;;16.30;94.40;;;;;;4974746;28;20043;-62
2022/05/30 08:33:31;;;;;;;2.10;1.10;;;16.40;97.70;;;;;;4975057;28;20055;-66
2022/05/30 08:36:05;;;;;;;3.72;1.00;;;15.90;98.70;;;;;;4975175;28;20046;-66
2022/05/30 08:38:33;;;;;;;2.58;1.05;;;16.30;99.90;;;;;;4957468;28;20478;-66
2022/05/30 08:43:48;;;;;;;3.75;1.17;;;16.00;99.20;;;;;;4975218;28;20050;-66
2022/05/30 08:46:34;;;;;;;2.95;1.30;;;16.30;99.90;;;;;;4975111;28;20078;-66
2022/05/30 08:49:10;;;;;;;2.03;1.00;;;17.00;97.20;;;;;;4975290;28;20094;-66
2022/05/30 08:51:50;;;;;;;2.03;0.85;;;17.60;95.70;;;;;;4975176;28;20063;-66
2022/05/30 08:54:35;;;;;;;2.65;1.52;;;18.00;93.60;;;;;;4974914;28;20058;-67
2022/05/30 08:57:07;;;;;;;2.95;0.93;;;18.10;92.20;;;;;;4974153;28;20063;-66
2022/05/30 08:59:56;;;;;;;2.38;1.00;;;18.10;91.70;;;;;;4974500;28;20061;-67
2022/05/30 09:02:51;;;;;;;2.03;1.15;;;17.90;87.80;;;;;;4969201;28;20057;-67
2022/05/30 09:05:24;;;;;;;2.20;1.05;;;18.00;76.10;;;;;;4934411;29;20407;-67
2022/05/30 09:07:54;;;;;;;1.77;1.00;;;17.70;91.50;;;;;;4938151;29;20106;-67
2022/05/30 09:10:25;;;;;;;2.30;0.98;;;17.60;92.70;;;;;;4955586;29;20070;-66
2022/05/30 09:13:06;;;;;;;1.38;0.65;;;17.10;90.00;;;;;;4954913;29;20050;-67
2022/05/30 09:15:45;;;;;;;1.38;0.70;;;17.20;71.10;;;;;;4954727;29;20071;-67
2022/05/30 09:18:17;;;;;;;2.88;0.85;;;16.90;91.60;;;;;;4955274;29;20043;-66
2022/05/30 09:20:42;;;;;;;4.72;1.30;;;16.90;84.30;;;;;;4955209;29;20054;-66
2022/05/30 09:23:10;;;;;;;4.28;1.30;;;16.60;96.10;;;;;;4937902;29;20044;-67
2022/05/30 09:26:07;;;;;;;4.88;1.40;;;16.70;96.90;;;;;;4955210;29;20059;-67
2022/05/30 09:28:39;;;;;;;2.35;1.30;;;13.90;91.40;;;;;;4955481;29;20043;-66
2022/05/30 09:31:38;;;;;;;2.38;1.10;;;16.80;93.40;;;;;;4955104;29;20093;-66
2022/05/30 09:34:35;;;;;;;1.73;1.02;;;16.50;97.90;;;;;;4954922;29;20094;-67
2022/05/30 09:37:01;;;;;;;1.92;1.00;;;16.90;97.80;;;;;;4955123;29;20604;-67
2022/05/30 09:39:27;;;;;;;4.75;1.10;;;16.60;93.20;;;;;;4955027;29;20055;-67
2022/05/30 09:42:01;;;;;;;3.78;1.20;;;16.50;98.20;;;;;;4954954;29;20047;-67
2022/05/30 09:44:41;;;;;;;2.45;1.05;;;16.20;94.90;;;;;;4938025;29;20062;-66
2022/05/30 09:47:16;;;;;;;2.53;1.00;;;15.40;99.90;;;;;;4956442;28;20556;-66
2022/05/30 09:49:46;;;;;;;3.20;1.10;;;15.50;99.90;;;;;;4961379;29;20053;-66
2022/05/30 09:52:47;;;;;;;2.75;1.20;;;14.80;99.90;;;;;;4961369;29;20051;-66
2022/05/30 09:55:33;;;;;;;2.58;1.15;;;14.70;99.90;;;;;;4902130;29;20052;-66
2022/05/30 09:58:00;;;;;;;1.98;1.10;;;14.40;99.90;;;;;;4903892;29;20436;-66
2022/05/30 10:00:26;;;;;;;2.15;0.88;;;;;;;;;;4910051;29;20063;-66
2022/05/30 10:03:12;;;;;;;2.05;0.85;;;14.50;99.90;;;;;;4904773;29;20056;-66
2022/05/30 10:05:39;;;;;;;2.95;0.90;;;14.50;99.90;;;;;;4886569;29;20040;-66
2022/05/30 10:08:20;;;;;;;2.63;1.00;;;14.70;99.90;;;;;;4901097;29;20084;-66
2022/05/30 10:10:51;;;;;;;1.92;0.90;;;14.30;99.90;;;;;;4902171;29;20160;-66
2022/05/30 10:13:40;;;;;;;1.23;0.80;;;13.80;99.90;;;;;;4886467;29;20056;-66
2022/05/30 10:16:09;;;;;;;3.75;0.88;;;14.30;99.90;;;;;;4902099;29;20052;-66
2022/05/30 10:18:52;;;;;;;1.67;0.98;;;14.30;99.90;;;;;;4886296;29;20143;-61
2022/05/30 10:30:29;;;;;;;1.45;0.80;;;14.60;99.90;;;;;;4973118;28;20042;-62
2022/05/30 10:33:14;;;;;;;3.65;2.47;;;15.10;99.90;;;;;;4954346;28;20043;-61
2022/05/30 10:35:46;;;;;;;1.77;1.05;;;15.00;99.90;;;;;;4954224;28;20043;-62
2022/05/30 10:38:35;;;;;;;0.88;0.60;;;14.60;99.90;;;;;;4968337;28;20114;-61
2022/05/30 10:41:15;;;;;;;1.10;0.50;;;15.30;99.90;;;;;;4959862;28;20050;-62
2022/05/30 10:43:56;;;;;;;1.10;0.47;;;16.00;99.90;;;;;;4979134;28;20055;-61
2022/05/30 10:46:39;;;;;;;0.77;0.40;;;15.50;99.90;;;;;;4979029;28;20053;-62
2022/05/30 10:49:09;;;;;;;1.02;0.40;;;15.00;99.90;;;;;;4978794;28;20089;-61
2022/05/30 10:51:57;;;;;;;2.08;0.60;;;16.00;99.60;;;;;;4979058;28;20506;-62
2022/05/30 10:54:38;;;;;;;1.98;0.80;;;16.10;96.20;;;;;;4961796;28;20054;-62
2022/05/30 10:57:26;;;;;;;1.67;0.75;;;16.30;99.10;;;;;;4978622;28;20059;-62
2022/05/30 10:59:57;;;;;;;1.33;0.80;;;16.40;92.50;;;;;;4975109;28;20046;-62
2022/05/30 11:02:39;;;;;;;1.45;0.75;;;16.60;93.90;;;;;;4975471;28;20054;-62
2022/05/30 11:05:25;;;;;;;2.22;0.68;;;16.90;91.50;;;;;;4976027;28;20546;-62
2022/05/30 11:08:02;;;;;;;1.88;0.95;;;17.40;95.60;;;;;;4975135;28;20082;-62
2022/05/30 11:10:32;;;;;;;0.35;0.35;;;17.30;89.20;;;;;;4961410;28;20043;-62
2022/05/30 11:13:13;;;;;;;1.88;0.80;;;17.90;92.60;;;;;;4966357;28;20388;-62
2022/05/30 11:15:49;;;;;;;2.83;0.68;;;17.90;92.70;;;;;;4958495;28;20109;-62
2022/05/30 11:19:07;;;;;;;2.05;0.77;;;18.20;91.80;;;;;;4975476;28;20090;-62
2022/05/30 11:21:59;;;;;;;2.88;1.15;;;18.30;90.90;;;;;;4958559;28;20061;-62
2022/05/30 11:24:25;;;;;;;1.67;0.80;;;18.40;80.70;;;;;;4975969;28;20043;-62
2022/05/30 11:27:33;;;;;;;0.57;0.32;;;18.40;81.90;;;;;;4958336;28;20054;-64
2022/05/30 11:30:19;;;;;;;2.15;0.45;;;17.70;87.20;;;;;;4976260;28;20046;-63
2022/05/30 11:32:57;;;;;;;2.53;0.70;;;17.90;88.00;;;;;;4976266;28;20142;-63
2022/05/30 11:35:23;;;;;;;2.15;0.40;;;;;;;;;;4976411;28;20512;-63
2022/05/30 11:37:49;;;;;;;1.25;0.45;;;;;;;;;;4976563;28;20089;-62
2022/05/30 11:40:28;;;;;;;0.90;0.60;;;16.80;81.60;;;;;;4976462;28;20042;-63
2022/05/30 11:43:21;;;;;;;2.35;0.85;;;16.80;75.30;;;;;;4976401;28;20085;-63
2022/05/30 11:46:20;;;;;;;1.73;0.82;;;16.60;72.20;;;;;;4976309;28;20042;-63
2022/05/30 11:49:02;;;;;;;2.08;0.82;;;16.60;76.70;;;;;;4958925;28;20055;-62
2022/05/30 11:52:04;;;;;;;1.73;0.70;;;16.40;91.30;;;;;;4959268;28;20073;-63
2022/05/30 11:54:47;;;;;;;1.27;0.65;;;16.60;80.80;;;;;;4976097;28;20524;-62
2022/05/30 11:57:37;;;;;;;0.88;0.50;;;16.60;83.90;;;;;;4958740;28;20054;-62
2022/05/30 12:00:22;;;;;;;2.38;1.00;;;16.70;87.10;;;;;;4976007;28;20062;-62
2022/05/30 12:02:56;;;;;;;1.75;0.95;;;16.50;94.20;;;;;;4967244;28;20102;-62
2022/05/30 12:05:56;;;;;;;1.02;0.90;;;16.60;90.40;;;;;;4956712;29;20055;-62
2022/05/30 12:08:47;;;;;;;2.03;1.02;;;16.40;91.10;;;;;;4956196;29;20051;-62
2022/05/30 12:11:53;;;;;;;2.70;1.40;;;16.10;99.90;;;;;;4956071;28;20082;-62
2022/05/30 12:14:32;;;;;;;2.58;1.30;;;16.00;99.90;;;;;;4956534;29;20055;-62
2022/05/30 12:17:17;;;;;;;4.97;1.25;;;16.10;99.90;;;;;;4939508;29;20059;-62
2022/05/30 12:26:03;;;;;;;3.08;1.23;;;15.70;99.60;;;;;;4956343;29;20078;-64
2022/05/30 12:28:29;;;;;;;5.57;1.38;;;15.60;99.90;;;;;;4938968;29;20082;-64
2022/05/30 12:31:01;;;;;;;1.95;1.10;;;15.00;99.90;;;;;;4956097;29;20058;-65
2022/05/30 12:33:27;;;;;;;3.97;1.10;;;15.20;99.90;;;;;;4938856;29;20059;-63
2022/05/30 12:36:08;;;;;;;1.88;1.10;;;15.40;99.90;;;;;;4938871;29;20054;-62
2022/05/30 12:39:01;;;;;;;4.30;1.13;;;15.90;99.90;;;;;;4956070;29;20426;-63
2022/05/30 12:41:49;;;;;;;1.80;0.75;;;15.10;99.90;;;;;;4937004;29;20062;-62
2022/05/30 12:44:43;;;;;;;1.65;0.90;;;15.30;99.90;;;;;;4956127;29;20055;-62
2022/05/30 12:47:14;;;;;;;5.32;1.48;;;15.50;99.90;;;;;;4956049;29;20050;-63
2022/05/30 12:49:41;;;;;;;2.80;1.33;;;15.00;99.90;;;;;;4955826;29;20054;-63
2022/05/30 12:52:19;;;;;;;2.05;1.00;;;15.10;99.90;;;;;;4955647;29;20402;-62
2022/05/30 12:54:57;;;;;;;2.53;1.30;;;14.70;99.90;;;;;;4955726;29;20121;-63
2022/05/30 12:57:34;;;;;;;3.15;1.30;;;14.80;99.90;;;;;;4938329;28;20093;-63
2022/05/30 13:00:14;;;;;;;3.63;1.30;;;14.90;99.90;;;;;;4958470;28;20142;-64
2022/05/30 13:02:54;;;;;;;3.08;1.33;;;14.80;99.90;;;;;;4948379;29;20122;-63
2022/05/30 13:05:41;;;;;;;2.67;1.30;;;14.80;99.90;;;;;;4938083;29;20055;-64
2022/05/30 13:08:44;;;;;;;2.95;1.10;;;14.70;99.90;;;;;;4955217;29;20114;-63
2022/05/30 13:11:36;;;;;;;2.58;1.20;;;14.70;99.90;;;;;;4938257;29;20088;-63
2022/05/30 13:14:27;;;;;;;2.50;1.20;;;14.60;99.90;;;;;;4955517;29;20051;-64
2022/05/30 13:16:58;;;;;;;2.92;1.20;;;14.70;99.90;;;;;;4955416;28;20402;-64
2022/05/30 13:19:25;;;;;;;4.00;1.17;;;14.60;99.90;;;;;;4956920;28;20057;-63
2022/05/30 13:21:51;;;;;;;3.25;1.33;;;14.50;99.90;;;;;;4960402;28;20398;-63
2022/05/30 13:24:37;;;;;;;5.53;1.50;;;14.40;99.90;;;;;;4957375;28;20043;-64
2022/05/30 13:27:03;;;;;;;2.25;1.15;;;14.40;99.90;;;;;;4974538;28;20053;-65
2022/05/30 13:29:41;;;;;;;4.57;1.30;;;14.40;99.90;;;;;;4974314;28;20047;-62
2022/05/30 13:32:18;;;;;;;2.00;1.27;;;14.20;99.90;;;;;;4974766;28;20121;-62
2022/05/30 13:34:48;;;;;;;2.75;1.40;;;14.30;99.90;;;;;;4974486;28;20058;-59
2022/05/30 13:37:23;;;;;;;2.13;1.10;;;14.10;99.90;;;;;;4974471;28;20125;-61
2022/05/30 13:39:51;;;;;;;1.98;1.05;;;14.00;99.90;;;;;;4974313;28;20394;-64
2022/05/30 13:42:17;;;;;;;1.92;1.30;;;14.00;99.90;;;;;;4974446;28;20429;-64
2022/05/30 13:44:42;;;;;;;2.20;1.10;;;13.90;99.90;;;;;;4956925;28;20049;-64
2022/05/30 13:47:15;;;;;;;2.88;1.00;;;14.20;99.90;;;;;;4972983;28;20410;-64
2022/05/30 13:49:44;;;;;;;2.88;1.10;;;13.90;99.90;;;;;;4974272;28;20082;-64
2022/05/30 13:52:21;;;;;;;2.58;1.02;;;14.00;99.90;;;;;;4974243;28;20565;-65
2022/05/30 13:54:51;;;;;;;4.13;1.00;;;14.20;99.90;;;;;;4974436;28;20050;-65
2022/05/30 13:57:17;;;;;;;3.03;1.20;;;13.70;99.90;;;;;;4974381;28;20050;-65
2022/05/30 13:59:48;;;;;;;2.53;1.00;;;15.30;99.90;;;;;;4974247;28;20408;-65